createdAt,value
2023-01-09T00:00:52.138Z,4.68
2023-01-09T00:03:19.218Z,4.03
2023-01-09T00:05:46.230Z,3.83
2023-01-09T00:08:13.127Z,5.05
2023-01-09T00:10:40.079Z,4.65
2023-01-09T00:13:06.964Z,4.95
2023-01-09T00:15:33.935Z,4.90
2023-01-09T00:18:00.867Z,7.00
2023-01-09T00:20:27.892Z,7.43
2023-01-09T00:22:54.819Z,6.93
2023-01-09T00:25:22.829Z,8.35
2023-01-09T00:27:49.790Z,8.10
2023-01-09T00:30:16.772Z,7.88
2023-01-09T00:32:43.774Z,5.97
2023-01-09T00:35:15.218Z,5.85
2023-01-09T00:37:42.151Z,6.22
2023-01-09T00:40:09.884Z,5.93
2023-01-09T00:42:37.744Z,10.55
2023-01-09T00:45:11.187Z,6.32
2023-01-09T00:47:44.863Z,6.07
2023-01-09T00:50:23.348Z,5.25
2023-01-09T00:52:53.031Z,5.43
2023-01-09T00:55:20.282Z,3.60
2023-01-09T00:57:47.723Z,4.13
2023-01-09T01:00:15.614Z,3.20
2023-01-09T01:02:42.551Z,7.65
2023-01-09T01:05:28.545Z,4.45
2023-01-09T01:07:55.419Z,2.42
2023-01-09T01:10:24.658Z,5.28
2023-01-09T01:12:52.560Z,5.20
2023-01-09T01:15:20.515Z,6.45
2023-01-09T01:17:47.881Z,6.20
2023-01-09T01:20:17.983Z,3.05
2023-01-09T01:22:45.348Z,4.57
2023-01-09T01:25:14.155Z,3.97
2023-01-09T01:27:41.236Z,7.00
2023-01-09T01:30:10.760Z,4.40
2023-01-09T01:32:38.136Z,2.53
2023-01-09T01:35:05.818Z,3.67
2023-01-09T01:37:35.646Z,2.90
2023-01-09T01:40:03.339Z,3.72
2023-01-09T01:42:30.311Z,2.58
2023-01-09T01:45:02.011Z,2.88
2023-01-09T01:48:09.390Z,3.42
2023-01-09T01:50:55.531Z,2.40
2023-01-09T01:53:42.864Z,3.10
2023-01-09T01:56:24.869Z,2.03
2023-01-09T01:59:10.496Z,6.63
2023-01-09T02:01:41.366Z,4.18
2023-01-09T02:04:09.299Z,3.35
2023-01-09T02:06:37.492Z,4.25
2023-01-09T02:09:05.944Z,1.83
2023-01-09T02:11:33.419Z,1.35
2023-01-09T02:14:01.729Z,2.80
2023-01-09T02:16:59.735Z,1.85
2023-01-09T02:19:46.257Z,3.00
2023-01-09T02:22:37.346Z,2.45
2023-01-09T02:25:23.076Z,1.98
2023-01-09T02:27:58.531Z,3.50
2023-01-09T02:30:35.628Z,2.50
2023-01-09T02:33:05.593Z,4.05
2023-01-09T02:35:58.590Z,2.20
2023-01-09T02:38:28.245Z,3.47
2023-01-09T02:41:28.977Z,2.47
2023-01-09T02:44:17.188Z,2.63
2023-01-09T02:46:44.116Z,3.13
2023-01-09T02:49:11.664Z,2.78
2023-01-09T02:52:13.645Z,3.53
2023-01-09T02:55:07.921Z,2.38
2023-01-09T03:00:27.911Z,4.68
2023-01-09T03:06:00.521Z,3.28
2023-01-09T03:08:54.961Z,7.05
2023-01-09T03:11:22.571Z,3.67
2023-01-09T03:14:01.263Z,4.32
2023-01-09T03:16:35.039Z,2.63
2023-01-09T03:21:33.018Z,3.83
2023-01-09T03:24:02.372Z,4.07
2023-01-09T03:26:31.065Z,4.20
2023-01-09T03:28:59.453Z,3.65
2023-01-09T03:31:26.433Z,3.90
2023-01-09T03:33:53.617Z,4.68
2023-01-09T03:36:22.004Z,2.80
2023-01-09T03:38:49.422Z,3.28
2023-01-09T03:41:16.371Z,3.60
2023-01-09T03:43:43.243Z,3.08
2023-01-09T03:46:10.330Z,4.32
2023-01-09T03:48:37.302Z,7.85
2023-01-09T03:51:04.347Z,5.45
2023-01-09T03:53:31.332Z,4.07
2023-01-09T03:55:58.993Z,4.60
2023-01-09T03:58:26.901Z,4.38
2023-01-09T04:00:59.889Z,3.45
2023-01-09T04:03:27.151Z,6.88
2023-01-09T04:05:54.136Z,5.63
2023-01-09T04:08:21.311Z,5.30
2023-01-09T04:10:49.610Z,3.70
2023-01-09T04:13:16.601Z,8.52
2023-01-09T04:15:43.744Z,4.47
2023-01-09T04:18:11.712Z,3.00
2023-01-09T04:20:39.304Z,3.00
2023-01-09T04:23:06.510Z,1.85
2023-01-09T04:25:33.482Z,4.22
2023-01-09T04:28:00.451Z,4.78
2023-01-09T04:30:27.475Z,4.28
2023-01-09T04:32:54.513Z,4.43
2023-01-09T04:35:21.783Z,4.82
2023-01-09T04:37:48.758Z,4.88
2023-01-09T04:40:15.809Z,4.55
2023-01-09T04:42:42.950Z,5.18
2023-01-09T04:45:11.576Z,5.45
2023-01-09T04:47:38.608Z,7.28
2023-01-09T04:50:05.864Z,5.63
2023-01-09T04:52:33.025Z,7.07
2023-01-09T04:54:59.971Z,6.30
2023-01-09T04:57:27.031Z,10.55
2023-01-09T04:59:54.385Z,8.25
2023-01-09T05:02:21.512Z,7.97
2023-01-09T05:04:48.627Z,7.95
2023-01-09T05:07:15.727Z,8.88
2023-01-09T05:09:43.591Z,7.45
2023-01-09T05:12:10.631Z,7.32
2023-01-09T05:14:37.626Z,8.82
2023-01-09T05:17:04.766Z,8.43
2023-01-09T05:19:31.803Z,9.48
2023-01-09T05:21:58.733Z,9.82
2023-01-09T05:24:25.676Z,8.10
2023-01-09T05:26:52.625Z,8.77
2023-01-09T05:29:19.847Z,7.78
2023-01-09T05:31:46.888Z,9.88
2023-01-09T05:34:13.849Z,7.00
2023-01-09T05:36:40.859Z,7.65
2023-01-09T05:39:07.887Z,9.00
2023-01-09T05:41:34.943Z,9.68
2023-01-09T05:44:01.976Z,9.10
2023-01-09T05:46:29.051Z,7.90
2023-01-09T05:48:56.008Z,11.05
2023-01-09T05:51:23.249Z,8.25
2023-01-09T05:53:50.551Z,9.93
2023-01-09T05:56:17.495Z,7.18
2023-01-09T05:58:44.398Z,8.32
2023-01-09T06:01:11.304Z,9.45
2023-01-09T06:03:38.317Z,5.75
2023-01-09T06:06:05.477Z,6.07
2023-01-09T06:08:32.409Z,6.03
2023-01-09T06:10:59.373Z,6.00
2023-01-09T06:13:26.359Z,6.00
2023-01-09T06:15:53.337Z,5.07
2023-01-09T06:18:21.175Z,5.68
2023-01-09T06:20:48.243Z,7.13
2023-01-09T06:23:15.149Z,6.60
2023-01-09T06:25:42.312Z,7.60
2023-01-09T06:28:09.280Z,8.90
2023-01-09T06:30:36.231Z,7.40
2023-01-09T06:33:03.205Z,8.05
2023-01-09T06:35:30.086Z,9.50
2023-01-09T06:37:57.203Z,7.80
2023-01-09T06:40:24.089Z,7.32
2023-01-09T06:42:51.076Z,6.93
2023-01-09T06:45:18.241Z,7.38
2023-01-09T06:47:45.147Z,14.20
2023-01-09T06:50:12.582Z,11.77
2023-01-09T06:52:40.011Z,17.80
2023-01-09T06:55:08.347Z,13.85
2023-01-09T06:57:35.330Z,18.05
2023-01-09T07:00:02.928Z,19.25
2023-01-09T07:02:29.969Z,17.17
2023-01-09T07:04:56.882Z,12.75
2023-01-09T07:07:24.004Z,10.68
2023-01-09T07:09:50.986Z,12.75
2023-01-09T07:12:18.060Z,12.65
2023-01-09T07:14:45.052Z,14.32
2023-01-09T07:17:16.713Z,14.50
2023-01-09T07:19:43.667Z,14.35
2023-01-09T07:22:10.949Z,16.77
2023-01-09T07:24:37.943Z,18.95
2023-01-09T07:27:04.917Z,18.70
2023-01-09T07:29:31.958Z,19.88
2023-01-09T07:31:58.881Z,24.25
2023-01-09T07:34:25.787Z,24.40
2023-01-09T07:36:52.789Z,25.98
2023-01-09T07:39:19.781Z,30.33
2023-01-09T07:41:46.892Z,25.42
2023-01-09T07:44:15.837Z,22.85
2023-01-09T07:46:42.743Z,25.55
2023-01-09T07:49:09.652Z,18.25
2023-01-09T07:51:39.172Z,22.67
2023-01-09T07:54:06.332Z,17.48
2023-01-09T07:56:33.268Z,17.92
2023-01-09T07:59:00.217Z,18.83
2023-01-09T08:01:27.580Z,14.82
2023-01-09T08:03:54.509Z,12.82
2023-01-09T08:06:21.424Z,13.52
2023-01-09T08:08:48.574Z,14.77
2023-01-09T08:11:15.605Z,18.80
2023-01-09T08:13:42.542Z,21.80
2023-01-09T08:16:09.606Z,23.17
2023-01-09T08:18:37.514Z,24.05
2023-01-09T08:21:04.988Z,26.58
2023-01-09T08:23:31.944Z,22.65
2023-01-09T08:25:59.013Z,31.98
2023-01-09T08:28:25.999Z,17.92
2023-01-09T08:30:52.993Z,20.33
2023-01-09T08:33:19.971Z,13.95
2023-01-09T08:35:47.012Z,19.50
2023-01-09T08:38:14.863Z,19.48
2023-01-09T08:40:41.909Z,16.45
2023-01-09T08:43:27.927Z,19.48
2023-01-09T08:46:13.414Z,20.58
2023-01-09T08:48:40.471Z,15.30
2023-01-09T08:51:07.455Z,15.13
2023-01-09T08:53:34.396Z,18.02
2023-01-09T08:56:01.428Z,18.67
2023-01-09T08:58:28.489Z,35.80
2023-01-09T09:00:55.442Z,22.33
2023-01-09T09:03:22.480Z,30.38
2023-01-09T09:05:49.440Z,28.65
2023-01-09T09:08:16.629Z,39.50
2023-01-09T09:10:43.660Z,44.53
2023-01-09T09:13:10.591Z,30.15
2023-01-09T09:15:39.028Z,26.42
2023-01-09T09:18:07.450Z,31.65
2023-01-09T09:20:36.827Z,35.83
2023-01-09T09:23:04.771Z,33.75
2023-01-09T09:25:32.079Z,30.17
2023-01-09T09:28:01.108Z,27.75
2023-01-09T09:30:28.260Z,21.42
2023-01-09T09:32:55.371Z,24.50
2023-01-09T09:35:23.286Z,21.55
2023-01-09T09:37:58.317Z,27.23
2023-01-09T09:40:52.358Z,23.15
2023-01-09T09:43:55.960Z,22.08
2023-01-09T09:46:28.737Z,21.83
2023-01-09T09:49:05.569Z,24.13
2023-01-09T09:51:48.740Z,19.58
2023-01-09T09:54:21.704Z,17.38
2023-01-09T09:56:53.124Z,17.88
2023-01-09T09:59:33.376Z,22.55
2023-01-09T10:02:09.481Z,28.55
2023-01-09T10:04:45.065Z,35.97
2023-01-09T10:07:28.513Z,24.63
2023-01-09T10:10:00.597Z,26.63
2023-01-09T10:12:29.504Z,21.75
2023-01-09T10:14:59.417Z,21.88
2023-01-09T10:17:29.288Z,23.50
2023-01-09T10:20:25.053Z,16.58
2023-01-09T10:23:13.921Z,16.75
2023-01-09T10:25:51.244Z,19.20
2023-01-09T10:28:45.761Z,13.75
2023-01-09T10:31:30.687Z,17.05
2023-01-09T10:34:19.310Z,14.32
2023-01-09T10:37:01.398Z,15.85
2023-01-09T10:39:42.504Z,25.55
2023-01-09T10:42:18.289Z,20.52
2023-01-09T10:44:53.395Z,16.90
2023-01-09T10:47:27.272Z,10.02
2023-01-09T10:49:56.076Z,12.77
2023-01-09T10:52:32.931Z,22.05
2023-01-09T10:55:25.927Z,24.45
2023-01-09T10:57:58.602Z,33.53
2023-01-09T11:00:25.905Z,22.27
2023-01-09T11:02:54.773Z,25.65
2023-01-09T11:05:28.076Z,14.30
2023-01-09T11:08:11.491Z,13.48
2023-01-09T11:10:50.831Z,10.48
2023-01-09T11:13:26.934Z,10.55
2023-01-09T11:16:20.343Z,8.20
2023-01-09T11:18:54.754Z,11.83
2023-01-09T11:21:40.632Z,11.73
2023-01-09T11:24:19.644Z,8.63
2023-01-09T11:26:47.854Z,10.32
2023-01-09T11:29:20.129Z,15.82
2023-01-09T11:32:05.112Z,10.30
2023-01-09T11:34:36.636Z,8.13
2023-01-09T11:37:15.907Z,9.38
2023-01-09T11:39:48.190Z,8.32
2023-01-09T11:42:41.468Z,8.73
2023-01-09T11:45:23.911Z,11.05
2023-01-09T11:47:50.787Z,9.93
2023-01-09T11:50:24.939Z,14.43
2023-01-09T11:53:18.132Z,6.38
2023-01-09T11:55:47.088Z,7.18
2023-01-09T11:58:16.710Z,8.35
2023-01-09T12:00:55.399Z,8.82
2023-01-09T12:03:25.165Z,12.65
2023-01-09T12:06:19.646Z,11.98
2023-01-09T12:08:54.497Z,10.13
2023-01-09T12:11:27.740Z,6.82
2023-01-09T12:14:31.621Z,7.38
2023-01-09T12:17:29.314Z,8.40
2023-01-09T12:20:26.035Z,6.18
2023-01-09T12:23:11.602Z,7.78
2023-01-09T12:25:38.510Z,8.52
2023-01-09T12:28:20.332Z,9.13
2023-01-09T12:31:28.469Z,7.43
2023-01-09T12:34:04.496Z,10.65
2023-01-09T12:36:40.426Z,10.02
2023-01-09T12:39:19.079Z,11.32
2023-01-09T12:41:59.351Z,9.63
2023-01-09T12:44:45.074Z,10.32
2023-01-09T12:47:33.736Z,9.00
2023-01-09T12:50:31.551Z,8.63
2023-01-09T12:53:22.534Z,11.95
2023-01-09T12:56:07.848Z,9.27
2023-01-09T12:58:47.201Z,10.20
2023-01-09T13:01:21.585Z,8.75
2023-01-09T13:03:57.670Z,12.65
2023-01-09T13:06:27.348Z,12.52
2023-01-09T13:09:19.373Z,9.63
2023-01-09T13:11:49.304Z,11.85
2023-01-09T13:14:38.972Z,9.60
2023-01-09T13:17:11.588Z,8.02
2023-01-09T13:19:40.235Z,11.40
2023-01-09T13:22:08.351Z,8.70
2023-01-09T13:24:56.567Z,7.75
2023-01-09T13:27:26.838Z,10.15
2023-01-09T13:30:03.403Z,9.23
2023-01-09T13:32:47.135Z,10.32
2023-01-09T13:35:15.201Z,10.90
2023-01-09T13:37:42.990Z,9.73
2023-01-09T13:40:18.971Z,8.07
2023-01-09T13:43:09.714Z,8.32
2023-01-09T13:45:38.481Z,10.73
2023-01-09T13:48:11.996Z,13.45
2023-01-09T13:50:39.793Z,12.85
2023-01-09T13:53:19.149Z,10.35
2023-01-09T13:56:12.548Z,13.35
2023-01-09T13:58:39.656Z,16.30
2023-01-09T14:01:25.024Z,12.10
2023-01-09T14:04:10.337Z,14.15
2023-01-09T14:06:37.424Z,13.57
2023-01-09T14:09:19.047Z,17.17
2023-01-09T14:11:47.842Z,25.23
2023-01-09T14:14:28.969Z,18.83
2023-01-09T14:16:59.188Z,18.02
2023-01-09T14:19:32.404Z,20.52
2023-01-09T14:22:00.359Z,16.25
2023-01-09T14:25:01.713Z,18.05
2023-01-09T14:28:10.509Z,19.13
2023-01-09T14:31:00.225Z,18.40
2023-01-09T14:33:29.938Z,17.60
2023-01-09T14:35:59.611Z,22.48
2023-01-09T14:38:28.994Z,21.15
2023-01-09T14:41:09.442Z,18.20
2023-01-09T14:44:06.713Z,20.67
2023-01-09T14:46:38.028Z,19.23
2023-01-09T14:49:33.467Z,19.77
2023-01-09T14:52:07.828Z,22.13
2023-01-09T14:54:40.045Z,25.80
2023-01-09T14:57:34.056Z,25.55
2023-01-09T15:00:02.301Z,26.48
2023-01-09T15:02:33.435Z,26.73
2023-01-09T15:05:09.307Z,20.88
2023-01-09T15:07:44.354Z,21.08
2023-01-09T15:10:21.160Z,24.70
2023-01-09T15:12:51.185Z,26.10
2023-01-09T15:15:20.266Z,22.63
2023-01-09T15:18:08.232Z,34.80
2023-01-09T15:20:35.537Z,24.00
2023-01-09T15:23:05.856Z,26.20
2023-01-09T15:25:39.716Z,22.83
2023-01-09T15:28:33.275Z,21.42
2023-01-09T15:31:13.967Z,19.80
2023-01-09T15:33:42.348Z,27.30
2023-01-09T15:36:23.660Z,25.95
2023-01-09T15:38:52.444Z,22.75
2023-01-09T15:41:43.926Z,22.92
2023-01-09T15:44:26.047Z,27.45
2023-01-09T15:46:57.739Z,23.15
2023-01-09T15:49:25.292Z,25.48
2023-01-09T15:51:53.245Z,29.08
2023-01-09T15:54:40.635Z,32.95
2023-01-09T15:57:33.276Z,31.75
2023-01-09T16:00:33.356Z,31.17
2023-01-09T16:03:11.769Z,26.58
2023-01-09T16:05:48.332Z,29.35
2023-01-09T16:08:22.743Z,25.33
2023-01-09T16:10:52.520Z,27.48
2023-01-09T16:13:22.372Z,29.88
2023-01-09T16:15:50.727Z,34.33
2023-01-09T16:18:22.374Z,32.75
2023-01-09T16:20:51.496Z,37.97
2023-01-09T16:23:19.136Z,37.78
2023-01-09T16:25:46.288Z,38.67
2023-01-09T16:31:05.152Z,29.60
2023-01-09T16:33:32.798Z,28.52
2023-01-09T16:36:00.256Z,28.08
2023-01-09T16:38:27.932Z,30.48
2023-01-09T16:41:31.561Z,39.95
2023-01-09T16:43:58.518Z,42.10
2023-01-09T16:46:26.404Z,41.30
2023-01-09T16:48:53.916Z,34.42
2023-01-09T16:51:22.885Z,43.22
2023-01-09T16:53:50.314Z,43.28
2023-01-09T16:56:22.021Z,37.75
2023-01-09T16:58:50.395Z,45.65
2023-01-09T17:01:18.192Z,43.05
2023-01-09T17:03:45.200Z,44.95
2023-01-09T17:06:32.384Z,47.17
2023-01-09T17:08:59.390Z,42.35
2023-01-09T17:11:34.430Z,38.88
2023-01-09T17:14:02.118Z,41.00
2023-01-09T17:16:30.064Z,42.72
2023-01-09T17:18:57.844Z,40.72
2023-01-09T17:21:29.084Z,40.58
2023-01-09T17:24:14.410Z,41.53
2023-01-09T17:27:06.200Z,37.90
2023-01-09T17:29:34.976Z,42.45
2023-01-09T17:32:02.115Z,43.80
2023-01-09T17:34:29.063Z,44.67
2023-01-09T17:36:56.124Z,42.53
2023-01-09T17:39:23.769Z,50.40
2023-01-09T17:41:50.707Z,46.17
2023-01-09T17:44:17.664Z,45.90
2023-01-09T17:46:45.051Z,46.53
2023-01-09T17:49:20.040Z,37.40
2023-01-09T17:51:47.217Z,42.15
2023-01-09T17:54:14.492Z,42.13
2023-01-09T17:56:49.528Z,32.10
2023-01-09T17:59:16.751Z,30.85
2023-01-09T18:01:44.714Z,31.10
2023-01-09T18:04:12.022Z,26.45
2023-01-09T18:06:38.931Z,30.60
2023-01-09T18:09:07.076Z,31.58
2023-01-09T18:11:34.577Z,32.13
2023-01-09T18:14:02.439Z,47.38
2023-01-09T18:16:29.520Z,33.75
2023-01-09T18:18:58.900Z,32.42
2023-01-09T18:21:28.256Z,31.77
2023-01-09T18:23:57.763Z,33.10
2023-01-09T18:26:25.314Z,28.20
2023-01-09T18:28:56.200Z,28.75
2023-01-09T18:31:24.364Z,30.08
2023-01-09T18:33:52.987Z,31.98
2023-01-09T18:36:21.973Z,39.13
2023-01-09T18:38:53.570Z,30.15
2023-01-09T18:41:22.026Z,33.95
2023-01-09T18:43:50.325Z,33.60
2023-01-09T18:46:24.070Z,49.38
2023-01-09T18:51:19.416Z,37.38
2023-01-09T18:53:46.477Z,34.50
2023-01-09T18:56:13.526Z,39.95
2023-01-09T18:58:40.505Z,31.98
2023-01-09T19:01:07.504Z,33.33
2023-01-09T19:03:34.658Z,34.53
2023-01-09T19:06:02.638Z,28.77
2023-01-09T19:08:33.973Z,27.67
2023-01-09T19:11:01.450Z,26.25
2023-01-09T19:13:33.312Z,29.83
2023-01-09T19:16:01.219Z,39.00
2023-01-09T19:18:30.250Z,37.10
2023-01-09T19:20:57.157Z,35.53
2023-01-09T19:23:26.809Z,35.00
2023-01-09T19:25:54.544Z,36.40
2023-01-09T19:28:22.059Z,30.38
2023-01-09T19:30:56.271Z,26.65
2023-01-09T19:33:24.676Z,31.50
2023-01-09T19:35:52.882Z,32.13
2023-01-09T19:38:23.162Z,36.20
2023-01-09T19:40:50.507Z,40.05
2023-01-09T19:43:25.971Z,31.33
2023-01-09T19:45:56.770Z,29.65
2023-01-09T19:48:27.048Z,34.65
2023-01-09T19:51:07.511Z,25.17
2023-01-09T19:53:36.306Z,27.70
2023-01-09T19:56:17.565Z,24.20
2023-01-09T19:58:49.631Z,21.63
2023-01-09T20:01:20.242Z,28.13
2023-01-09T20:03:48.607Z,21.55
2023-01-09T20:06:19.072Z,30.05
2023-01-09T20:08:48.055Z,24.42
2023-01-09T20:11:15.841Z,23.23
2023-01-09T20:13:43.647Z,23.80
2023-01-09T20:16:15.708Z,26.63
2023-01-09T20:18:43.116Z,23.33
2023-01-09T20:21:10.518Z,19.90
2023-01-09T20:23:37.799Z,23.05
2023-01-09T20:26:05.222Z,20.40
2023-01-09T20:28:32.224Z,19.60
2023-01-09T20:31:00.399Z,27.05
2023-01-09T20:33:27.347Z,20.73
2023-01-09T20:35:54.287Z,26.00
2023-01-09T20:38:21.202Z,26.38
2023-01-09T20:40:48.159Z,30.38
2023-01-09T20:43:15.123Z,24.60
2023-01-09T20:45:42.073Z,22.88
2023-01-09T20:48:11.087Z,19.27
2023-01-09T20:50:38.450Z,18.17
2023-01-09T20:53:07.844Z,24.75
2023-01-09T20:55:34.887Z,17.70
2023-01-09T20:58:01.793Z,23.23
2023-01-09T21:00:32.030Z,24.30
2023-01-09T21:02:59.582Z,26.98
2023-01-09T21:05:26.551Z,30.27
2023-01-09T21:07:53.676Z,21.70
2023-01-09T21:10:20.642Z,19.83
2023-01-09T21:12:47.688Z,21.25
2023-01-09T21:15:16.754Z,21.65
2023-01-09T21:17:43.834Z,20.30
2023-01-09T21:20:14.973Z,15.88
2023-01-09T21:22:43.260Z,20.02
2023-01-09T21:25:10.785Z,23.85
2023-01-09T21:27:46.978Z,24.02
2023-01-09T21:30:13.986Z,32.33
2023-01-09T21:32:41.051Z,20.05
2023-01-09T21:35:08.545Z,23.38
2023-01-09T21:37:37.219Z,14.52
2023-01-09T21:40:08.885Z,14.20
2023-01-09T21:42:54.165Z,16.98
2023-01-09T21:45:39.420Z,20.02
2023-01-09T21:48:07.322Z,22.38
2023-01-09T21:50:35.545Z,18.80
2023-01-09T21:53:03.225Z,11.63
2023-01-09T21:55:32.168Z,12.43
2023-01-09T21:58:01.199Z,14.90
2023-01-09T22:00:28.548Z,16.70
2023-01-09T22:02:55.731Z,21.45
2023-01-09T22:05:24.642Z,22.05
2023-01-09T22:07:52.332Z,22.52
2023-01-09T22:10:19.344Z,13.68
2023-01-09T22:13:08.336Z,16.52
2023-01-09T22:15:35.242Z,14.52
2023-01-09T22:18:02.161Z,17.02
2023-01-09T22:20:29.754Z,12.30
2023-01-09T22:22:57.447Z,11.13
2023-01-09T22:25:24.560Z,11.45
2023-01-09T22:27:51.487Z,20.73
2023-01-09T22:30:18.589Z,12.48
2023-01-09T22:32:45.507Z,10.65
2023-01-09T22:35:12.511Z,14.30
2023-01-09T22:37:39.610Z,10.75
2023-01-09T22:40:07.103Z,14.43
2023-01-09T22:42:34.042Z,13.45
2023-01-09T22:45:01.008Z,10.95
2023-01-09T22:47:27.988Z,18.35
2023-01-09T22:49:54.910Z,17.50
2023-01-09T22:52:22.303Z,16.60
2023-01-09T22:54:49.251Z,19.83
2023-01-09T22:57:16.328Z,13.13
2023-01-09T22:59:43.262Z,12.05
2023-01-09T23:02:10.676Z,10.52
2023-01-09T23:04:37.699Z,10.13
2023-01-09T23:07:04.669Z,10.93
2023-01-09T23:09:31.644Z,10.80
2023-01-09T23:12:05.291Z,13.10
2023-01-09T23:14:35.863Z,16.50
2023-01-09T23:17:04.134Z,11.52
2023-01-09T23:19:32.582Z,17.15
2023-01-09T23:22:00.756Z,17.25
2023-01-09T23:24:28.956Z,14.70
2023-01-09T23:26:56.837Z,12.18
2023-01-09T23:29:24.970Z,7.43
2023-01-09T23:31:53.787Z,10.80
2023-01-09T23:34:24.163Z,12.07
2023-01-09T23:36:52.087Z,10.10
2023-01-09T23:39:19.193Z,11.60
2023-01-09T23:42:04.591Z,10.98
2023-01-09T23:44:31.634Z,8.68
2023-01-09T23:46:58.889Z,9.50
2023-01-09T23:49:25.826Z,6.78
2023-01-09T23:51:52.784Z,13.05
2023-01-09T23:54:19.845Z,11.13
2023-01-09T23:56:46.873Z,14.45
2023-01-09T23:59:14.790Z,9.55
